aviador You're here:

KSUN Decoded Metar

HAILEY/FRIEDMAN in ID, USA
Report Time2017-12-15 18:47:00
UTC Time2017-12-15 19:30:55
Flight Rules vfr VFR
WindCalm
Visibility9999 m
Phenomena:N/A
Clouds:Scattered 130 Hf
Expected CloudBase > 1,600 ft AGL from Temp-Dew spread
CeilingNone
Temp-2°C (ISA -6)
Dew Point-6°C (74% RH)
AAT-4.7°C
QNH1023 hPa
Density Alt4,265 ft
Elevation5,315 ft
Report Wrong Elevation
Raw Report
METAR KSUN 151847Z 00000KT 10SM SCT130 M02/M06 A3020=

Extra information for KSUN:More info

Metar Taf Metar & Taf Last 4 Metars F.Rules Stats Wind Profile Meteogram Temp Stats Airport Information Weather charts Add Link Nearby VenuesMetar ALERT Operation Metar Decoded Social comments

AIRNAV info for KSUN